createdAt,value
2018-03-03T09:27:40.420Z,0.65
2018-03-03T09:36:11.600Z,0.76
2018-03-03T09:41:40.979Z,0.86
2018-03-03T09:50:14.175Z,1.36
2018-03-03T09:52:40.455Z,1.24
2018-03-03T09:55:06.613Z,0.99
2018-03-03T09:57:32.856Z,1.01
2018-03-03T09:59:59.068Z,1.27
2018-03-03T10:02:25.297Z,1.38
2018-03-03T10:04:51.461Z,1.52
2018-03-03T10:07:17.673Z,1.55
2018-03-03T10:09:43.996Z,1.61
2018-03-03T10:12:10.139Z,1.59
2018-03-03T10:14:36.323Z,1.69
2018-03-03T10:17:02.597Z,1.59
2018-03-03T10:19:28.756Z,1.51
2018-03-03T10:21:55.003Z,1.64
2018-03-03T10:24:21.267Z,2.00
2018-03-03T10:26:47.453Z,2.14
2018-03-03T10:29:13.592Z,2.26
2018-03-03T10:31:39.815Z,2.10
2018-03-03T10:34:05.940Z,2.27
2018-03-03T10:36:32.127Z,2.45
2018-03-03T10:38:58.289Z,2.71
2018-03-03T10:41:24.471Z,2.68
2018-03-03T10:43:50.576Z,2.97
2018-03-03T10:46:16.771Z,2.98
2018-03-03T10:48:42.932Z,3.23
2018-03-03T10:51:09.085Z,3.31
2018-03-03T10:53:35.293Z,3.40
2018-03-03T10:56:01.510Z,3.44
2018-03-03T10:58:27.662Z,3.49
2018-03-03T11:00:55.575Z,3.71
2018-03-03T11:03:21.816Z,3.89
2018-03-03T11:05:48.013Z,3.98
2018-03-03T11:08:14.285Z,4.06
2018-03-03T11:10:40.476Z,4.15
2018-03-03T11:13:06.610Z,4.00
2018-03-03T11:15:33.041Z,4.16
2018-03-03T11:17:59.311Z,4.24
2018-03-03T11:20:25.454Z,4.36
2018-03-03T11:22:51.718Z,4.46
2018-03-03T11:25:17.948Z,4.46
2018-03-03T11:27:44.160Z,4.51
2018-03-03T11:30:10.333Z,4.64
2018-03-03T11:32:36.440Z,4.77
2018-03-03T11:35:02.553Z,4.86
2018-03-03T11:37:28.716Z,4.90
2018-03-03T11:39:54.831Z,5.02
2018-03-03T11:42:20.933Z,5.11
2018-03-03T11:44:47.119Z,5.09
2018-03-03T11:47:13.314Z,5.17
2018-03-03T11:49:39.425Z,5.10
2018-03-03T11:52:05.571Z,5.19
2018-03-03T11:54:31.683Z,5.25
2018-03-03T11:56:57.830Z,5.28
2018-03-03T11:59:24.028Z,5.28
2018-03-03T12:01:50.125Z,5.32
2018-03-03T12:04:16.267Z,5.40
2018-03-03T12:06:42.535Z,5.43
2018-03-03T12:09:08.653Z,5.42
2018-03-03T12:11:34.756Z,5.46
2018-03-03T12:14:00.918Z,5.64
2018-03-03T12:16:27.106Z,5.75
2018-03-03T12:18:53.230Z,5.67
2018-03-03T12:21:19.345Z,5.78
2018-03-03T12:23:45.519Z,5.86
2018-03-03T12:26:11.724Z,6.02
2018-03-03T12:28:37.889Z,6.10
2018-03-03T12:31:04.020Z,6.26
2018-03-03T12:33:30.176Z,6.28
2018-03-03T12:35:56.425Z,6.37
2018-03-03T12:38:22.590Z,6.32
2018-03-03T12:40:48.696Z,6.20
2018-03-03T12:43:14.829Z,6.41
2018-03-03T12:45:41.032Z,6.49
2018-03-03T12:48:07.136Z,6.56
2018-03-03T12:50:33.271Z,6.88
2018-03-03T12:52:59.466Z,7.16
2018-03-03T12:55:25.639Z,7.61
2018-03-03T12:57:51.863Z,8.42
2018-03-03T13:00:17.976Z,9.13
2018-03-03T13:02:44.137Z,9.59
2018-03-03T13:05:10.244Z,10.11
2018-03-03T13:07:36.390Z,10.67
2018-03-03T13:10:02.552Z,11.61
2018-03-03T13:12:28.671Z,11.86
2018-03-03T13:14:54.803Z,11.57
2018-03-03T13:17:20.959Z,10.38
2018-03-03T13:19:47.275Z,9.44
2018-03-03T13:22:13.467Z,9.01
2018-03-03T13:24:39.552Z,8.74
2018-03-03T13:27:05.705Z,8.48
2018-03-03T13:29:31.845Z,8.40
2018-03-03T13:31:58.003Z,8.17
2018-03-03T13:34:24.172Z,7.88
2018-03-03T13:36:50.446Z,7.81
2018-03-03T13:39:16.593Z,7.71
2018-03-03T13:41:42.705Z,7.81
2018-03-03T13:44:09.270Z,7.84
2018-03-03T13:46:35.569Z,7.63
2018-03-03T13:49:01.679Z,7.66
2018-03-03T13:51:27.863Z,7.75
2018-03-03T13:53:54.028Z,7.79
2018-03-03T13:56:20.214Z,7.82
2018-03-03T13:58:46.389Z,7.88
2018-03-03T14:01:12.560Z,8.07
2018-03-03T14:03:38.759Z,8.24
2018-03-03T14:06:04.952Z,8.21
2018-03-03T14:08:31.102Z,8.16
2018-03-03T14:10:57.282Z,8.32
2018-03-03T14:13:23.443Z,8.27
2018-03-03T14:15:49.715Z,8.28
2018-03-03T14:18:15.879Z,8.18
2018-03-03T14:20:42.073Z,7.89
2018-03-03T14:23:08.239Z,7.75
2018-03-03T14:25:34.435Z,7.60
2018-03-03T14:28:00.598Z,7.61
2018-03-03T14:30:28.417Z,7.67
2018-03-03T14:32:55.627Z,7.68
2018-03-03T14:35:21.749Z,7.72
2018-03-03T14:37:47.939Z,7.74
2018-03-03T14:40:14.091Z,7.54
2018-03-03T14:42:40.399Z,7.49
2018-03-03T14:47:56.456Z,7.49
2018-03-03T14:50:22.687Z,7.38
2018-03-03T14:52:49.262Z,7.46
2018-03-03T14:55:15.384Z,7.51
2018-03-03T14:57:41.521Z,7.46
2018-03-03T15:00:07.704Z,7.35
2018-03-03T15:02:33.860Z,7.26
2018-03-03T15:05:00.022Z,7.22
2018-03-03T15:07:26.226Z,7.12
2018-03-03T15:09:52.430Z,7.09
2018-03-03T15:12:18.596Z,7.06
2018-03-03T15:14:44.738Z,7.07
2018-03-03T15:17:10.855Z,7.02
2018-03-03T15:19:37.043Z,6.87
2018-03-03T15:22:03.218Z,6.89
2018-03-03T15:24:29.411Z,6.82
2018-03-03T15:26:55.559Z,6.83
2018-03-03T15:29:21.862Z,6.80
2018-03-03T15:31:48.021Z,6.77
2018-03-03T15:34:14.219Z,6.82
2018-03-03T15:36:40.393Z,6.75
2018-03-03T15:39:06.509Z,6.66
2018-03-03T15:41:32.734Z,6.67
2018-03-03T15:43:58.880Z,6.71
2018-03-03T15:46:25.000Z,6.70
2018-03-03T15:48:51.128Z,6.69
2018-03-03T15:51:17.298Z,6.65
2018-03-03T15:53:43.430Z,6.62
2018-03-03T15:56:09.611Z,6.49
2018-03-03T15:58:35.721Z,6.44
2018-03-03T16:01:01.828Z,6.44
2018-03-03T16:03:27.995Z,6.39
2018-03-03T16:05:54.113Z,6.35
2018-03-03T16:08:20.312Z,6.28
2018-03-03T16:10:46.656Z,6.23
2018-03-03T16:13:12.803Z,6.20
2018-03-03T16:15:38.914Z,6.16
2018-03-03T16:18:05.038Z,6.12
2018-03-03T16:20:31.241Z,6.07
2018-03-03T16:22:57.402Z,6.07
2018-03-03T16:25:23.520Z,6.04
2018-03-03T16:27:49.657Z,5.95
2018-03-03T16:30:15.989Z,5.93
2018-03-03T16:32:42.142Z,5.94
2018-03-03T16:35:08.275Z,5.93
2018-03-03T16:37:34.469Z,5.91
2018-03-03T16:40:00.579Z,5.92
2018-03-03T16:42:26.741Z,5.89
2018-03-03T16:44:52.876Z,5.90
2018-03-03T16:47:19.018Z,5.86
2018-03-03T16:49:45.168Z,5.83
2018-03-03T16:52:11.346Z,5.80
2018-03-03T16:54:37.487Z,5.77
2018-03-03T16:57:03.678Z,5.73
2018-03-03T16:59:29.790Z,5.75
2018-03-03T17:01:56.010Z,5.70
2018-03-03T17:04:22.220Z,5.68
2018-03-03T17:06:48.367Z,5.68
2018-03-03T17:09:14.517Z,5.66
2018-03-03T17:11:40.704Z,5.65
2018-03-03T17:14:06.857Z,5.58
2018-03-03T17:16:32.996Z,5.53
2018-03-03T17:18:59.138Z,5.50
2018-03-03T17:21:25.261Z,5.48
2018-03-03T17:23:51.404Z,5.40
2018-03-03T17:26:17.578Z,5.39
2018-03-03T17:28:43.699Z,5.33
2018-03-03T17:31:09.821Z,5.25
2018-03-03T17:33:42.950Z,5.21
2018-03-03T17:36:09.080Z,5.13
2018-03-03T17:38:35.262Z,5.10
2018-03-03T17:41:01.434Z,5.10
2018-03-03T17:43:27.603Z,5.08
2018-03-03T17:45:53.728Z,5.11
2018-03-03T17:48:19.908Z,5.12
2018-03-03T17:50:46.051Z,5.13
2018-03-03T17:53:12.235Z,5.13
2018-03-03T17:55:38.333Z,5.11
2018-03-03T17:58:04.440Z,5.11
2018-03-03T18:00:30.691Z,5.10
2018-03-03T18:02:56.838Z,5.13
2018-03-03T18:05:22.982Z,5.09
2018-03-03T18:07:49.173Z,5.03
2018-03-03T18:10:15.289Z,5.04
2018-03-03T18:12:41.489Z,5.02
2018-03-03T18:15:07.627Z,4.99
2018-03-03T18:17:33.834Z,4.96
2018-03-03T18:19:59.950Z,4.93
2018-03-03T18:22:26.137Z,4.93
2018-03-03T18:24:52.287Z,4.95
2018-03-03T18:27:18.446Z,4.92
2018-03-03T18:29:44.597Z,4.90
2018-03-03T18:32:10.808Z,4.90
2018-03-03T18:34:37.040Z,4.87
2018-03-03T18:37:03.258Z,4.89
2018-03-03T18:39:29.397Z,4.87
2018-03-03T18:41:55.508Z,4.84
2018-03-03T18:44:22.137Z,4.81
2018-03-03T18:46:48.296Z,4.80
2018-03-03T18:49:14.435Z,4.75
2018-03-03T18:51:40.596Z,4.77
2018-03-03T18:54:06.782Z,4.76
2018-03-03T18:56:32.897Z,4.76
2018-03-03T18:58:59.067Z,4.71
2018-03-03T19:01:25.175Z,4.69
2018-03-03T19:03:51.335Z,4.66
2018-03-03T19:06:17.462Z,4.60
2018-03-03T19:08:43.653Z,4.56
2018-03-03T19:11:09.784Z,4.48
2018-03-03T19:13:35.992Z,4.37
2018-03-03T19:16:02.193Z,4.34
2018-03-03T19:18:28.317Z,4.29
2018-03-03T19:20:54.519Z,4.22
2018-03-03T19:23:20.737Z,4.20
2018-03-03T19:25:46.969Z,4.16
2018-03-03T19:28:13.123Z,4.10
2018-03-03T19:30:39.237Z,4.05
2018-03-03T19:33:05.453Z,4.05
2018-03-03T19:35:31.622Z,4.02
2018-03-03T19:37:57.844Z,4.06
2018-03-03T19:40:23.969Z,4.07
2018-03-03T19:42:50.686Z,4.04
2018-03-03T19:45:16.798Z,4.12
2018-03-03T19:47:42.900Z,4.10
2018-03-03T19:50:09.045Z,4.13
2018-03-03T19:52:35.231Z,4.09
2018-03-03T19:55:01.369Z,4.08
2018-03-03T19:57:27.569Z,4.03
2018-03-03T19:59:53.738Z,4.00
2018-03-03T20:02:20.388Z,4.01
2018-03-03T20:04:46.593Z,3.94
2018-03-03T20:07:12.808Z,3.96
2018-03-03T20:09:39.017Z,4.00
2018-03-03T20:12:05.250Z,3.98
2018-03-03T20:14:31.508Z,4.00
2018-03-03T20:16:57.776Z,4.02
2018-03-03T20:19:23.939Z,3.99
2018-03-03T20:21:50.140Z,4.01
2018-03-03T20:24:16.355Z,3.99
2018-03-03T20:26:42.525Z,3.97
2018-03-03T20:29:08.818Z,3.99
2018-03-03T20:31:35.115Z,3.97
2018-03-03T20:34:01.338Z,3.98
2018-03-03T20:36:27.570Z,3.90
2018-03-03T20:38:53.751Z,3.84
2018-03-03T20:41:19.916Z,3.77
2018-03-03T20:43:46.251Z,3.74
2018-03-03T20:46:12.677Z,3.72
2018-03-03T20:48:38.916Z,3.69
2018-03-03T20:51:05.173Z,3.66
2018-03-03T20:53:31.375Z,3.64
2018-03-03T20:55:57.576Z,3.63
2018-03-03T20:58:23.784Z,3.58
2018-03-03T21:00:50.002Z,3.54
2018-03-03T21:03:16.276Z,3.46
2018-03-03T21:05:42.485Z,3.36
2018-03-03T21:08:10.497Z,3.36
2018-03-03T21:10:36.691Z,3.36
2018-03-03T21:13:02.918Z,3.39
2018-03-03T21:15:29.200Z,3.46
2018-03-03T21:17:55.428Z,3.46
2018-03-03T21:20:21.688Z,3.48
2018-03-03T21:22:47.910Z,3.41
2018-03-03T21:25:14.150Z,3.31
2018-03-03T21:27:40.317Z,3.25
2018-03-03T21:30:06.502Z,3.22
2018-03-03T21:32:32.674Z,3.22
2018-03-03T21:34:58.921Z,3.21
2018-03-03T21:37:25.154Z,3.18
2018-03-03T21:39:51.335Z,3.14
2018-03-03T21:42:17.624Z,3.15
2018-03-03T21:44:43.866Z,3.12
2018-03-03T21:47:10.108Z,3.13
2018-03-03T21:49:36.274Z,3.17
2018-03-03T21:52:02.856Z,3.18
2018-03-03T21:54:29.071Z,3.22
2018-03-03T21:56:55.279Z,3.24
2018-03-03T21:59:21.481Z,3.35
2018-03-03T22:01:47.672Z,3.39
2018-03-03T22:04:13.912Z,3.45
2018-03-03T22:06:40.121Z,3.49
2018-03-03T22:09:06.318Z,3.50
2018-03-03T22:11:32.483Z,3.50
2018-03-03T22:13:59.083Z,3.48
2018-03-03T22:16:25.248Z,3.51
2018-03-03T22:18:51.418Z,3.45
2018-03-03T22:21:17.572Z,3.47
2018-03-03T22:23:43.819Z,3.53
2018-03-03T22:26:10.048Z,3.56
2018-03-03T22:28:36.258Z,3.58
2018-03-03T22:31:02.429Z,3.62
2018-03-03T22:33:28.681Z,3.62
2018-03-03T22:35:55.598Z,3.68
2018-03-03T22:38:21.889Z,3.68
2018-03-03T22:40:48.110Z,3.72
2018-03-03T22:43:14.342Z,3.73
2018-03-03T22:45:40.534Z,3.72
2018-03-03T22:48:06.909Z,3.75
2018-03-03T22:50:33.052Z,3.76
2018-03-03T22:52:59.202Z,3.69
2018-03-03T22:55:25.405Z,3.56
2018-03-03T22:57:51.561Z,3.47
2018-03-03T23:00:17.759Z,3.41
2018-03-03T23:02:44.001Z,3.34
2018-03-03T23:05:10.234Z,3.28
2018-03-03T23:07:36.436Z,3.23
2018-03-03T23:10:02.683Z,3.17
2018-03-03T23:12:28.878Z,3.15
2018-03-03T23:14:55.087Z,3.08
2018-03-03T23:17:21.280Z,3.01
2018-03-03T23:19:47.427Z,3.00
2018-03-03T23:22:13.617Z,2.94
2018-03-03T23:24:39.895Z,2.91
2018-03-03T23:27:06.031Z,2.85
2018-03-03T23:29:32.274Z,2.79
2018-03-03T23:31:58.450Z,2.75
2018-03-03T23:34:24.709Z,2.73
2018-03-03T23:36:50.891Z,2.70
2018-03-03T23:39:17.124Z,2.72
2018-03-03T23:41:43.282Z,2.79
2018-03-03T23:44:09.493Z,2.80
2018-03-03T23:46:35.724Z,2.81
2018-03-03T23:49:01.963Z,2.81
2018-03-03T23:51:28.163Z,2.79
2018-03-03T23:53:54.410Z,2.80
2018-03-03T23:56:20.632Z,2.75
2018-03-03T23:58:46.864Z,2.70
